• Join FlightAware (Why Join?)
  • Login
  • US Flag 
11:52AM EDT


 

Airport Tracker/Info


-or-


 

Live Flight TrackerFlight Track Log ✈ TAP721 ✈ 04-Jul-2013 ✈ LROP / OTP - LPPT / LIS

Flight Track Log - Related Links

Times and Time Zones

All times are in EDT time to prevent confusion due to time zone crossing. See the TAP721 flight status page for this flight to view local times or setup timezone preferences in your user account.

Time Position Orientation Groundspeed Altitude Reporting Facility
EDT Latitude Longitude Course Direction KTS MPH feet Rate Location/Type
10:44PM 44.5690 26.0810 126° Southeast  Level FlightAware
10:44PM 44.5690 26.0820 90° East 120 Level FlightAware
10:45PM 44.5700 26.0840 55° Northeast 120 Level FlightAware
10:45PM 44.5720 26.0840 360° North 120 Level FlightAware
10:46PM 44.5730 26.0850 35° Northeast 180 Level FlightAware
10:46PM 44.5740 26.0850 360° North 180 Level FlightAware
10:47PM 44.5760 26.0840 340° North 240 Level FlightAware
10:48PM 44.5770 26.0950 83° East 360 Level FlightAware
10:49PM 44.5790 26.1130 81° East 1,320 Level FlightAware
10:49PM 44.5800 26.1280 85° East 169 194 700 2,880 Climbing FlightAware
10:49PM 44.5810 26.1470 86° East 172 198 1,400 1,680 Climbing FlightAware
10:50PM 44.5840 26.1800 83° East 206 237 2,000 1,380 Climbing FlightAware
10:50PM 44.5880 26.2080 79° East 233 268 2,500 2,040 Climbing FlightAware
10:50PM 44.5940 26.2190 53° Northeast 234 269 3,000 2,760 Climbing FlightAware
10:50PM 44.6130 26.2320 26° Northeast 237 273 3,900 2,580 Climbing FlightAware
10:51PM 44.6260 26.2350 North 249 287 4,300 2,820 Climbing FlightAware
10:51PM 44.6600 26.2400 North 258 297 5,800 3,120 Climbing FlightAware
10:52PM 44.6890 26.2430 North 262 302 7,100 2,940 Climbing FlightAware
10:52PM 44.7300 26.2290 346° North 276 318 8,700 2,700 Climbing FlightAware
10:53PM 44.7640 26.2160 345° North 285 328 9,900 2,040 Climbing FlightAware
10:53PM 44.8180 26.1940 344° North 325 374 11,000 1,920 Climbing FlightAware
10:54PM 44.8780 26.1630 340° North 346 398 12,500 2,400 Climbing FlightAware
10:54PM 44.8940 26.1410 316° Northwest 349 402 13,200 2,580 Climbing FlightAware
10:54PM 44.9050 26.1070 295° West 356 410 13,800 2,340 Climbing FlightAware
10:55PM 44.9320 26.0070 291° West 363 418 15,700 2,460 Climbing FlightAware
10:56PM 44.9530 25.9270 290° West 367 422 17,200 2,220 Climbing FlightAware
10:57PM 44.9810 25.8190 290° West 380 437 18,800 1,980 Climbing FlightAware
10:57PM 45.0040 25.7280 290° West 387 445 20,100 1,920 Climbing FlightAware
10:58PM 45.0340 25.6140 290° West 396 456 21,600 1,980 Climbing FlightAware
10:59PM 45.0590 25.5140 290° West 400 460 23,000 1,860 Climbing FlightAware
10:59PM 45.0890 25.3970 290° West 409 471 24,300 1,680 Climbing FlightAware
11:00PM 45.1160 25.2910 290° West 407 468 25,600 1,560 Climbing FlightAware
11:01PM 45.1480 25.1630 290° West 417 480 26,800 1,440 Climbing FlightAware
11:02PM 45.1720 25.0680 290° West 421 484 27,700 1,320 Climbing FlightAware
11:02PM 45.1980 24.9640 290° West 427 491 28,500 1,200 Climbing FlightAware
11:03PM 45.2310 24.8330 290° West 433 498 29,500 1,380 Climbing FlightAware
11:04PM 45.2580 24.7220 289° West 432 497 30,600 1,500 Climbing FlightAware
11:04PM 45.2860 24.6110 290° West 428 493 31,600 1,500 Climbing FlightAware
11:05PM 45.3120 24.5050 289° West 422 486 32,700 1,440 Climbing FlightAware
11:06PM 45.3380 24.3970 289° West 420 483 33,600 1,140 Climbing FlightAware
11:06PM 45.3610 24.3020 289° West 421 484 34,200 780 Climbing FlightAware
11:07PM 45.3900 24.1820 289° West 427 491 34,700 840 Climbing FlightAware
11:08PM 45.4130 24.0880 289° West 426 490 35,400 900 Climbing FlightAware
11:09PM 45.4440 23.9570 289° West 425 489 36,000 360 Climbing FlightAware
11:09PM 45.4700 23.8470 289° West 426 490 36,000  Level FlightAware
11:10PM 45.4960 23.7370 289° West 428 493 36,000  Level FlightAware
11:11PM 45.5330 23.5830 289° West 426 490 36,000  Level FlightAware
11:12PM 45.5570 23.4800 288° West 426 490 36,000  Level FlightAware
11:12PM 45.5800 23.3790 288° West 427 491 36,000  Level FlightAware
11:13PM 45.6100 23.2500 288° West 429 494 36,000  Level FlightAware
11:14PM 45.6340 23.1450 288° West 428 493 36,000 60 Level FlightAware
11:14PM 45.6590 23.0360 288° West 424 488 36,100  Climbing FlightAware
11:15PM 45.6800 22.9430 288° West 421 484 36,000 -120 Descending FlightAware
11:16PM 45.7120 22.8090 289° West 419 482 36,000  Level FlightAware
11:16PM 45.7380 22.7040 290° West 417 480 36,000  Level FlightAware
11:17PM 45.7660 22.5880 289° West 415 478 36,000  Level FlightAware
11:18PM 45.7930 22.4770 289° West 414 476 36,000  Level FlightAware
11:19PM 45.8200 22.3660 289° West 416 479 36,000  Level FlightAware
11:19PM 45.8460 22.2570 289° West 418 481 36,000  Level FlightAware
11:20PM 45.8740 22.1390 289° West 419 482 36,000  Level FlightAware
11:21PM 45.8960 22.0500 290° West 419 482 36,000  Level FlightAware
11:22PM 45.9300 21.9070 289° West 420 483 36,000  Level FlightAware
11:22PM 45.9590 21.7810 288° West 420 483 36,000  Level FlightAware
11:23PM 45.9880 21.6600 289° West 421 484 36,000  Level FlightAware
11:24PM 46.0120 21.5540 288° West 421 484 36,000  Level FlightAware
11:24PM 46.0370 21.4450 288° West 422 486 36,000  Level FlightAware
11:25PM 46.0610 21.3450 289° West 424 488 36,000  Level FlightAware
11:26PM 46.0830 21.2480 288° West 425 489 36,000  Level FlightAware
11:26PM 46.1100 21.1280 288° West 426 490 36,000  Level FlightAware
11:27PM 46.1350 21.0190 288° West 428 493 36,000  Level FlightAware
11:28PM 46.1580 20.9190 288° West 428 493 36,000  Level FlightAware
11:29PM 46.1930 20.7620 288° West 427 491 36,000  Level FlightAware
11:30PM 46.2350 20.5730 288° West 424 488 36,000  Level FlightAware
11:31PM 46.2620 20.4540 288° West 422 486 36,000  Level FlightAware
11:31PM 46.2860 20.3430 287° West 422 486 36,000  Level FlightAware
11:32PM 46.3070 20.2420 287° West 424 488 36,000  Level FlightAware
11:33PM 46.3240 20.1090 281° West 426 490 36,000  Level FlightAware
11:33PM 46.3370 19.9950 279° West 426 490 36,000  Level FlightAware
11:34PM 46.3510 19.8680 279° West 427 491 36,000  Level FlightAware
11:35PM 46.3640 19.7550 280° West 426 490 36,000  Level FlightAware
11:35PM 46.3770 19.6320 279° West 426 490 36,000  Level FlightAware
11:36PM 46.3870 19.5450 279° West 427 491 36,000  Level FlightAware
11:37PM 46.4010 19.4180 279° West 428 493 36,000  Level FlightAware
11:37PM 46.4130 19.3050 279° West 424 488 36,000  Level FlightAware
11:38PM 46.4270 19.1870 280° West 421 484 36,000  Level FlightAware
11:39PM 46.4390 19.0820 279° West 421 484 36,000  Level FlightAware
11:39PM 46.4530 18.9640 280° West 422 486 36,000  Level FlightAware
11:40PM 46.4680 18.8400 280° West 421 484 36,000  Level FlightAware
11:41PM 46.4810 18.7270 280° West 420 483 36,000  Level FlightAware
11:41PM 46.4950 18.6160 280° West 421 484 36,000  Level FlightAware
11:42PM 46.5080 18.5030 280° West 421 484 36,000  Level FlightAware
11:43PM 46.5210 18.3920 280° West 422 486 36,000  Level FlightAware
11:44PM 46.5360 18.2650 280° West 423 487 36,000  Level FlightAware
11:44PM 46.5480 18.1620 280° West 424 488 36,000  Level FlightAware
11:45PM 46.5610 18.0440 279° West 424 488 36,000  Level FlightAware
11:46PM 46.5750 17.9150 279° West 426 490 36,000  Level FlightAware
11:46PM 46.5850 17.8180 279° West 429 494 36,000  Level FlightAware
11:47PM 46.5920 17.7150 276° West 431 496 36,000  Level FlightAware
11:48PM 46.6020 17.5950 277° West 434 499 36,000 60 Level FlightAware
11:48PM 46.6110 17.4710 276° West 434 499 36,100  Climbing FlightAware
11:49PM 46.6190 17.3670 276° West 434 499 36,000 -120 Descending FlightAware
11:50PM 46.6290 17.2280 276° West 433 498 36,000  Level FlightAware
11:50PM 46.6370 17.1180 276° West 433 498 36,000  Level FlightAware
11:51PM 46.6460 16.9800 275° West 433 498 36,000  Level FlightAware
11:52PM 46.6540 16.8620 276° West 433 498 36,000  Level FlightAware
11:52PM 46.6620 16.7450 276° West 434 499 36,000  Level FlightAware
11:53PM 46.6690 16.6480 276° West 434 499 36,000  Level FlightAware
11:54PM 46.6760 16.5270 275° West 435 501 36,000  Level FlightAware
11:55PM 46.6570 16.3590 261° West 432 497 36,000  Level FlightAware
11:55PM 46.6300 16.2710 246° West 433 498 36,000  Level FlightAware
11:56PM 46.5890 16.1580 242° Southwest 431 496 36,000  Level FlightAware
11:57PM 46.5530 16.0550 243° Southwest 429 494 36,000  Level FlightAware
11:57PM 46.5170 15.9470 244° Southwest 428 493 36,000  Level FlightAware
11:58PM 46.4890 15.8440 248° West 425 489 36,000  Level FlightAware
11:59PM 46.4570 15.7260 249° West 425 489 36,000  Level FlightAware
11:59PM 46.4250 15.6070 249° West 425 489 36,000  Level FlightAware
12:00AM 46.3940 15.4950 248° West 425 489 36,000  Level FlightAware
12:01AM 46.3620 15.3780 248° West 429 494 36,000  Level FlightAware
12:02AM 46.3230 15.2360 248° West 431 496 36,000  Level FlightAware
12:02AM 46.2890 15.1140 248° West 433 498 36,000  Level FlightAware
12:03AM 46.2590 15.0070 248° West 433 498 36,000  Level FlightAware
12:04AM 46.2290 14.8970 249° West 434 499 36,000 120 Level FlightAware
12:05AM 46.1950 14.7770 248° West 438 504 36,200 480 Climbing FlightAware
12:05AM 46.1650 14.6720 248° West 440 506 36,700 600 Climbing FlightAware
12:06AM 46.1330 14.5600 248° West 439 505 37,000 180 Climbing FlightAware
12:07AM 46.0940 14.4240 248° West 441 507 37,000  Level FlightAware
12:07AM 46.0710 14.3420 248° West 440 506 37,000  Level FlightAware
12:08AM 46.0360 14.2210 247° West 441 507 37,000  Level FlightAware
12:09AM 46.0080 14.1240 247° West 444 511 37,000 60 Level FlightAware
12:09AM 45.9760 14.0160 247° West 444 511 37,100 60 Climbing FlightAware
12:10AM 45.9450 13.9070 248° West 444 511 37,100 -120 Level FlightAware
12:11AM 45.9000 13.7540 247° West 444 511 37,000 -60 Descending FlightAware
12:12AM 45.8590 13.6330 244° Southwest 444 511 37,000  Level FlightAware
12:12AM 45.8110 13.5320 236° Southwest 445 512 37,000  Level FlightAware
12:13AM 45.7660 13.4170 241° Southwest 448 516 37,000  Level FlightAware
12:14AM 45.7410 13.3300 248° West 445 512 37,000  Level FlightAware
12:14AM 45.7010 13.1880 248° West 445 512 37,000  Level FlightAware
12:15AM 45.6890 13.1480 247° West 445 512 37,000  Level FlightAware
12:16AM 45.6240 12.9240 248° West 442 509 37,000  Level FlightAware
12:17AM 45.5870 12.7970 247° West 443 510 37,000  Level FlightAware
12:17AM 45.5640 12.7140 248° West 443 510 37,000  Level FlightAware
12:18AM 45.5280 12.5940 247° West 446 513 37,000  Level FlightAware
12:19AM 45.4990 12.4950 247° West 452 520 37,000  Level FlightAware
12:19AM 45.4590 12.3570 248° West 454 522 37,000  Level FlightAware
12:20AM 45.4260 12.2460 247° West 454 522 37,000  Level FlightAware
12:21AM 45.3930 12.1380 247° West 455 524 37,000  Level FlightAware
12:21AM 45.3600 12.0260 247° West 457 526 37,000  Level FlightAware
12:22AM 45.3230 11.9030 247° West 456 525 37,000  Level FlightAware
12:23AM 45.2900 11.7940 247° West 456 525 37,000  Level FlightAware
12:24AM 45.2520 11.6680 247° West 452 520 37,000  Level FlightAware
12:24AM 45.2200 11.5630 247° West 452 520 37,000  Level FlightAware
12:25AM 45.1810 11.4340 247° West 454 522 37,000  Level FlightAware
12:26AM 45.1500 11.3360 246° West 454 522 37,000  Level FlightAware
12:26AM 45.1120 11.2120 247° West 453 521 37,000  Level FlightAware
12:27AM 45.0800 11.1090 246° West 454 522 37,000  Level FlightAware
12:28AM 45.0490 11.0100 246° West 454 522 37,000  Level FlightAware
12:28AM 45.0110 10.8890 246° West 454 522 37,000  Level FlightAware
12:29AM 44.9880 10.7980 250° West 452 520 37,000  Level FlightAware
12:30AM 44.9610 10.6910 250° West 453 521 37,000  Level FlightAware
12:30AM 44.9270 10.5560 250° West 457 526 37,000  Level FlightAware
12:31AM 44.8990 10.4430 251° West 457 526 37,000 300 Level FlightAware
12:32AM 44.8680 10.3210 250° West 456 525 37,500 660 Climbing FlightAware
12:33AM 44.8370 10.1970 251° West 460 529 38,000 660 Climbing FlightAware
12:33AM 44.8100 10.0910 250° West 461 531 38,400 600 Climbing FlightAware
12:34AM 44.7810 9.9780 250° West 460 529 38,800 420 Climbing FlightAware
12:34AM 44.7520 9.8660 250° West 455 524 39,000 120 Climbing FlightAware
12:35AM 44.7220 9.7490 250° West 457 526 39,000  Level FlightAware
12:36AM 44.6940 9.6430 250° West 460 529 39,000  Level FlightAware
12:36AM 44.6670 9.5390 250° West 462 532 39,000  Level FlightAware
12:37AM 44.6370 9.4260 250° West 463 533 39,000  Level FlightAware
12:38AM 44.6040 9.2990 250° West 464 534 39,000  Level FlightAware
12:39AM 44.5720 9.1800 249° West 465 535 39,000  Level FlightAware
12:39AM 44.5400 9.0610 249° West 465 535 39,000  Level FlightAware
12:40AM 44.5080 8.9400 250° West 465 535 39,000  Level FlightAware
12:41AM 44.4790 8.8310 250° West 464 534 39,000  Level FlightAware
12:41AM 44.4530 8.7360 249° West 463 533 39,000  Level FlightAware
12:42AM 44.4180 8.6060 249° West 461 531 39,000  Level FlightAware
12:43AM 44.3860 8.4910 249° West 461 531 39,000  Level FlightAware
12:43AM 44.3640 8.4080 250° West 460 529 39,000  Level FlightAware
12:44AM 44.3280 8.2780 249° West 457 526 39,000  Level FlightAware
12:45AM 44.2980 8.1700 249° West 455 524 39,000  Level FlightAware
12:45AM 44.2600 8.0520 246° West 461 531 39,000  Level FlightAware
12:46AM 44.2210 7.9440 243° Southwest 458 527 39,000  Level FlightAware
12:47AM 44.1780 7.8250 243° Southwest 457 526 39,000  Level FlightAware
12:47AM 44.1400 7.7210 243° Southwest 457 526 39,000  Level FlightAware
12:48AM 44.1070 7.6300 243° Southwest 457 526 39,000  Level FlightAware
12:49AM 44.0670 7.5200 243° Southwest 457 526 39,000  Level FlightAware
12:49AM 44.0240 7.4050 243° Southwest 457 526 39,000  Level FlightAware
12:50AM 43.9860 7.3010 243° Southwest 453 521 39,000  Level FlightAware
12:51AM 43.9480 7.1980 243° Southwest 449 517 39,000  Level FlightAware
12:52AM 43.9050 7.0810 243° Southwest 445 512 39,000  Level FlightAware
12:52AM 43.8630 6.9690 243° Southwest 442 509 39,000  Level FlightAware
12:53AM 43.8330 6.8900 242° Southwest 442 509 39,000  Level FlightAware
12:54AM 43.7930 6.7840 242° Southwest 442 509 39,000  Level FlightAware
12:54AM 43.7540 6.6800 243° Southwest 443 510 39,000  Level FlightAware
12:55AM 43.7160 6.5790 243° Southwest 442 509 39,000  Level FlightAware
12:55AM 43.6800 6.4850 242° Southwest 442 509 39,000  Level FlightAware
12:56AM 43.6420 6.3850 242° Southwest 444 511 39,000  Level FlightAware
12:57AM 43.6040 6.2880 242° Southwest 446 513 39,000  Level FlightAware
12:58AM 43.5590 6.1690 242° Southwest 447 514 39,000  Level FlightAware
12:58AM 43.5150 6.0550 242° Southwest 450 518 39,000  Level FlightAware
12:59AM 43.4780 5.9600 242° Southwest 450 518 39,000  Level FlightAware
01:00AM 43.4340 5.8470 242° Southwest 452 520 39,000  Level FlightAware
01:00AM 43.4000 5.7600 242° Southwest 452 520 39,000  Level FlightAware
01:01AM 43.3590 5.6560 242° Southwest 453 521 39,000  Level FlightAware
01:02AM 43.3120 5.5570 237° Southwest 460 529 39,000  Level FlightAware
01:02AM 43.2630 5.4760 230° Southwest 461 531 39,000  Level FlightAware
01:03AM 43.2110 5.3920 230° Southwest 461 531 39,000  Level FlightAware
01:04AM 43.1440 5.2840 230° Southwest 459 528 39,000  Level FlightAware
01:04AM 43.0920 5.2000 230° Southwest 456 525 39,000  Level FlightAware
01:05AM 43.0330 5.1050 230° Southwest 454 522 39,000  Level FlightAware
01:06AM 42.9730 5.0090 230° Southwest 454 522 39,000  Level FlightAware
01:06AM 42.9160 4.9190 229° Southwest 453 521 39,000  Level FlightAware
01:07AM 42.8610 4.8320 229° Southwest 453 521 39,000  Level FlightAware
01:08AM 42.8070 4.7450 230° Southwest 453 521 39,000  Level FlightAware
01:09AM 42.7440 4.6460 229° Southwest 451 519 39,000  Level FlightAware
01:09AM 42.6690 4.5280 229° Southwest 452 520 39,000  Level FlightAware
01:10AM 42.6170 4.4460 229° Southwest 453 521 39,000  Level FlightAware
01:11AM 42.5570 4.3520 229° Southwest 450 518 39,000  Level FlightAware
01:12AM 42.5020 4.2660 229° Southwest 450 518 39,000  Level FlightAware
01:12AM 42.4450 4.1770 229° Southwest 450 518 39,000  Level FlightAware
01:13AM 42.3690 4.0600 229° Southwest 452 520 39,000  Level FlightAware
01:14AM 42.3210 3.9860 229° Southwest 453 521 39,000  Level FlightAware
01:14AM 42.2560 3.8850 229° Southwest 454 522 39,000  Level FlightAware
01:15AM 42.1990 3.7990 228° Southwest 454 522 39,000  Level FlightAware
01:16AM 42.1450 3.7160 229° Southwest 453 521 39,000  Level FlightAware
01:17AM 42.0940 3.6240 233° Southwest 448 516 39,000  Level FlightAware
01:17AM 42.0550 3.5320 240° Southwest 444 511 39,000  Level FlightAware
01:18AM 42.0200 3.4250 246° West 441 507 39,000  Level FlightAware
01:19AM 41.9830 3.3160 245° Southwest 441 507 39,000  Level FlightAware
01:19AM 41.9440 3.2100 244° Southwest 444 511 39,000  Level FlightAware
01:20AM 41.8960 3.1200 234° Southwest 448 516 39,000  Level FlightAware
01:21AM 41.8440 3.0280 233° Southwest 447 514 39,000  Level FlightAware
01:21AM 41.7980 2.9480 232° Southwest 445 512 39,000  Level FlightAware
01:22AM 41.7500 2.8640 233° Southwest 443 510 39,000  Level FlightAware
01:23AM 41.6920 2.7640 232° Southwest 443 510 39,000  Level FlightAware
01:23AM 41.6500 2.6920 232° Southwest 445 512 39,000  Level FlightAware
01:24AM 41.5960 2.6000 232° Southwest 446 513 39,000  Level FlightAware
01:25AM 41.5450 2.5130 232° Southwest 448 516 39,000  Level FlightAware
01:25AM 41.4850 2.4100 232° Southwest 452 520 39,000  Level FlightAware
01:26AM 41.4350 2.3250 232° Southwest 454 522 39,000  Level FlightAware
01:27AM 41.3810 2.2330 232° Southwest 454 522 39,000 60 Level FlightAware
01:27AM 41.3320 2.1330 237° Southwest 448 516 39,100  Climbing FlightAware
01:28AM 41.3020 2.0290 249° West 440 506 39,000 -120 Descending FlightAware
01:29AM 41.2850 1.9110 259° West 436 502 39,000  Level FlightAware
01:29AM 41.2750 1.8280 261° West 434 499 39,000  Level FlightAware
01:31AM 41.2530 1.6420 261° West 431 496 39,000  Level FlightAware
01:31AM 41.2410 1.5370 261° West 430 495 39,000  Level FlightAware
01:32AM 41.2280 1.4270 261° West 431 496 39,000  Level FlightAware
01:33AM 41.2140 1.3100 261° West 433 498 39,000  Level FlightAware
01:33AM 41.2020 1.2160 260° West 434 499 39,000  Level FlightAware
01:34AM 41.1910 1.1210 261° West 434 499 39,000  Level FlightAware
01:35AM 41.1750 0.9960 260° West 433 498 39,000  Level FlightAware
01:35AM 41.1640 0.9040 261° West 433 498 39,000  Level FlightAware
01:36AM 41.1510 0.7980 261° West 433 498 39,000  Level FlightAware
01:37AM 41.1370 0.6870 261° West 435 501 39,000  Level FlightAware
01:37AM 41.1230 0.5800 260° West 435 501 39,000  Level FlightAware
01:38AM 41.1100 0.4770 261° West 435 501 39,000  Level FlightAware
01:39AM 41.0940 0.3560 260° West 433 498 39,000  Level FlightAware
01:39AM 41.0810 0.2520 261° West 434 499 39,000  Level FlightAware
01:40AM 41.0650 0.1340 260° West 435 501 39,000  Level FlightAware
01:41AM 41.0510 0.0280 260° West 435 501 39,000  Level FlightAware
01:42AM 41.0360 -0.0860 260° West 434 499 39,000  Level FlightAware
01:42AM 41.0220 -0.1920 260° West 433 498 39,000  Level FlightAware
01:43AM 41.0040 -0.3010 258° West 434 499 39,000  Level FlightAware
01:44AM 40.9760 -0.4090 251° West 438 504 39,000  Level FlightAware
01:44AM 40.9480 -0.5100 250° West 439 505 39,000  Level FlightAware
01:45AM 40.9190 -0.6170 250° West 439 505 39,000  Level FlightAware
01:46AM 40.8900 -0.7250 250° West 439 505 39,000  Level FlightAware
01:46AM 40.8610 -0.8300 250° West 439 505 39,000  Level FlightAware
01:47AM 40.8360 -0.9210 250° West 437 503 39,000  Level FlightAware
01:48AM 40.8070 -1.0260 250° West 435 501 39,000  Level FlightAware
01:48AM 40.7770 -1.1300 249° West 435 501 39,000  Level FlightAware
01:49AM 40.7550 -1.2120 251° West 435 501 39,000  Level FlightAware
01:50AM 40.7280 -1.3070 249° West 436 502 39,000  Level FlightAware
01:50AM 40.6960 -1.4220 250° West 438 504 39,000  Level FlightAware
01:51AM 40.6710 -1.5080 249° West 439 505 39,000  Level FlightAware
01:52AM 40.6450 -1.6010 250° West 439 505 39,000  Level FlightAware
01:52AM 40.6140 -1.7100 249° West 437 503 39,000  Level FlightAware
01:53AM 40.5860 -1.8090 250° West 435 501 39,000  Level FlightAware
01:54AM 40.5520 -1.9260 249° West 437 503 39,000  Level FlightAware
01:54AM 40.5210 -2.0330 249° West 438 504 39,000  Level FlightAware
01:55AM 40.4930 -2.1320 250° West 438 504 39,000  Level FlightAware
01:56AM 40.4620 -2.2390 249° West 439 505 39,000  Level FlightAware
01:56AM 40.4380 -2.3190 249° West 439 505 39,000  Level FlightAware
01:57AM 40.4040 -2.4370 249° West 440 506 39,000  Level FlightAware
01:58AM 40.3740 -2.5390 249° West 439 505 39,000  Level FlightAware
01:59AM 40.3490 -2.6500 254° West 437 503 39,000  Level FlightAware
01:59AM 40.3260 -2.7590 255° West 437 503 39,000  Level FlightAware
02:00AM 40.3040 -2.8600 254° West 436 502 39,000  Level FlightAware
02:01AM 40.2790 -2.9720 254° West 438 504 39,000  Level FlightAware
02:01AM 40.2570 -3.0730 254° West 438 504 39,000  Level FlightAware
02:02AM 40.2350 -3.1730 254° West 439 505 39,000  Level FlightAware
02:03AM 40.2080 -3.2920 253° West 440 506 39,000  Level FlightAware
02:03AM 40.1850 -3.3950 254° West 440 506 39,000  Level FlightAware
02:04AM 40.1620 -3.4960 253° West 440 506 39,000  Level FlightAware
02:05AM 40.1370 -3.6090 254° West 441 507 39,000  Level FlightAware
02:05AM 40.1170 -3.6990 254° West 440 506 39,000  Level FlightAware
02:06AM 40.0940 -3.7990 253° West 440 506 39,000  Level FlightAware
02:07AM 40.0680 -3.9110 253° West 441 507 39,000  Level FlightAware
02:08AM 40.0430 -4.0210 253° West 441 507 39,000  Level FlightAware
02:08AM 40.0260 -4.0940 253° West 441 507 39,000  Level FlightAware
02:09AM 40.0020 -4.1970 253° West 440 506 39,000  Level FlightAware
02:09AM 39.9780 -4.3030 254° West 440 506 39,000  Level FlightAware
02:10AM 39.9590 -4.3910 254° West 441 507 39,000  Level FlightAware
02:11AM 39.9310 -4.5290 255° West 441 507 39,000  Level FlightAware
02:12AM 39.9090 -4.6340 255° West 441 507 39,000  Level FlightAware
02:12AM 39.8860 -4.7470 255° West 441 507 39,000  Level FlightAware
02:13AM 39.8620 -4.8610 255° West 440 506 39,000  Level FlightAware
02:14AM 39.8410 -4.9670 256° West 440 506 39,000  Level FlightAware
02:14AM 39.8190 -5.0690 254° West 442 509 39,000  Level FlightAware
02:15AM 39.7980 -5.1710 255° West 441 507 39,000  Level FlightAware
02:16AM 39.7740 -5.2840 255° West 441 507 39,000  Level FlightAware
02:16AM 39.7520 -5.3880 255° West 442 509 39,000  Level FlightAware
02:17AM 39.7280 -5.5030 255° West 443 510 39,000  Level FlightAware
02:18AM 39.7060 -5.6060 255° West 443 510 39,000  Level FlightAware
02:19AM 39.6830 -5.7090 254° West 444 511 39,000  Level FlightAware
02:19AM 39.6590 -5.8240 255° West 443 510 39,000  Level FlightAware
02:20AM 39.6360 -5.9260 254° West 442 509 39,000  Level FlightAware
02:21AM 39.6120 -6.0400 255° West 441 507 39,000  Level FlightAware
02:21AM 39.5860 -6.1560 254° West 441 507 39,000  Level FlightAware
02:22AM 39.5700 -6.2290 254° West 441 507 39,000  Level FlightAware
02:23AM 39.5440 -6.3470 254° West 441 507 39,000  Level FlightAware
02:23AM 39.5180 -6.4430 251° West 440 506 39,000  Level FlightAware
02:24AM 39.4860 -6.5280 244° Southwest 432 497 39,000  Level FlightAware
02:25AM 39.4510 -6.6190 244° Southwest 429 494 39,000  Level FlightAware
02:25AM 39.4120 -6.7220 244° Southwest 430 495 39,000  Level FlightAware
02:26AM 39.3760 -6.8160 244° Southwest 429 494 39,000  Level FlightAware
02:27AM 39.3370 -6.9170 243° Southwest 429 494 39,000  Level FlightAware
02:27AM 39.3010 -7.0090 243° Southwest 428 493 39,000 -540 Level FlightAware
02:28AM 39.2640 -7.1060 244° Southwest 437 503 38,300 -780 Descending FlightAware
02:29AM 39.2300 -7.1920 243° Southwest 435 501 38,000 -480 Descending FlightAware
02:29AM 39.1980 -7.2750 244° Southwest 420 483 37,800 -900 Descending FlightAware
02:30AM 39.1610 -7.3700 243° Southwest 399 459 36,800 -1,440 Descending FlightAware
02:31AM 39.1280 -7.4540 243° Southwest 382 440 35,800 -1,560 Descending FlightAware
02:31AM 39.0960 -7.5350 243° Southwest 373 429 34,700 -2,340 Descending FlightAware
02:32AM 39.0640 -7.6170 243° Southwest 391 450 32,700 -3,420 Descending FlightAware
02:33AM 39.0300 -7.7020 243° Southwest 411 473 30,200 -3,000 Descending FlightAware
02:33AM 38.9950 -7.7900 243° Southwest 404 465 28,700 -2,040 Descending FlightAware
02:34AM 38.9570 -7.8850 243° Southwest 394 453 27,300 -2,340 Descending FlightAware
02:35AM 38.9210 -7.9750 243° Southwest 379 436 25,300 -3,480 Descending FlightAware
02:36AM 38.8870 -8.0560 242° Southwest 390 449 22,600 -2,880 Descending FlightAware
02:36AM 38.8610 -8.1170 241° Southwest 370 426 22,000 -1,200 Descending FlightAware
02:37AM 38.8210 -8.2080 241° Southwest 339 390 21,000 -1,620 Descending FlightAware
02:38AM 38.7900 -8.2780 240° Southwest 342 394 19,600 -1,980 Descending FlightAware
02:38AM 38.7700 -8.3250 241° Southwest 342 394 18,700 -1,800 Descending FlightAware
02:39AM 38.7280 -8.4180 240° Southwest 336 387 17,200 -1,740 Descending FlightAware
02:40AM 38.6980 -8.4860 241° Southwest 335 386 16,100 -1,620 Descending FlightAware
02:40AM 38.6670 -8.5580 241° Southwest 329 379 15,100 -1,620 Descending FlightAware
02:41AM 38.6370 -8.6240 240° Southwest 322 371 14,000 -1,800 Descending FlightAware
02:42AM 38.6210 -8.7070 256° West 311 358 12,600 -2,340 Descending FlightAware
02:42AM 38.6120 -8.7880 262° West 304 350 10,600 -3,000 Descending FlightAware
02:43AM 38.6090 -8.8250 264° West 303 349 9,400 -3,180 Descending FlightAware
02:43AM 38.6040 -8.8670 261° West 292 336 8,200 -2,880 Descending FlightAware
02:44AM 38.5990 -8.9100 262° West 288 331 7,000 -3,000 Descending FlightAware
02:44AM 38.5940 -8.9600 263° West 284 327 5,500 -2,880 Descending FlightAware
02:44AM 38.5910 -8.9870 262° West 281 323 4,800 -1,740 Descending FlightAware
02:45AM 38.5860 -9.0250 260° West 264 304 4,300 -1,020 Descending FlightAware
02:45AM 38.5820 -9.0630 262° West 246 283 4,000 -780 Descending FlightAware
02:46AM 38.5770 -9.0990 260° West 233 268 3,700 -600 Descending FlightAware
02:46AM 38.5730 -9.1370 262° West 222 255 3,500 -300 Descending FlightAware
02:47AM 38.5690 -9.1710 261° West 228 262 3,400 -360 Descending FlightAware
02:47AM 38.6310 -8.6400 81° East 3,200 -420 Descending FlightAware
02:48AM 38.6280 -9.2170 270° West 192 221 2,900 -660 Descending FlightAware
02:49AM 38.6730 -9.1940 22° Northeast 176 203 2,100 -960 Descending FlightAware
02:49AM 38.6940 -9.1820 24° Northeast 144 166 1,700 -780 Descending FlightAware
02:50AM 38.7090 -9.1750 20° North 121 139 1,400 -720 Descending FlightAware
02:50AM 38.7250 -9.1660 24° Northeast 123 142 1,100 -660 Descending FlightAware
02:51AM 38.7390 -9.1590 21° North 124 143 800 -660 Descending FlightAware
02:51AM 38.7540 -9.1510 23° Northeast 123 142 500 -360 Descending FlightAware
02:52AM 38.7740 -9.1400 23° Northeast 126 145 400 -180 Descending FlightAware
02:55AM 38.7813 -9.1359 24° Northeast  Level Estimated
02:56AM 38.7813 -9.1359 38° Northeast  Level Estimated